Page, AZ

6:48 AM MST on August 28, 2014 (GMT -0700)
Page Arizona | Change Station
CLOSE
Current Station
Personal Weather Station
Location: Page, AZ
Elevation: 4172 ft
Nearby Weather Stations

Elev 4172 ft 36.90 °N, 111.47 °W | Updated 1 second ago

Clear
Clear
62.0 °F
Feels Like 62.0 °F
N
4.0
Wind Variable Wind from East
Gusts 4.0 mph

Today
High -- | Low -- °F
--% Chance of Precip.
Yesterday
High -- | Low -- °F
Precip. -- in
5:53 AM 6:59 PM
Waxing Crescent, 8% visible
Pressure 30.04 in
Visibility 10.0 miles
Clouds Clear
Dew Point 50 °F
Humidity 65%
Rainfall 0.00 in
Snow Depth Not available.
UV 0 out of 12
Pollen 6.80 out of 12
Air Quality Not available.
Flu Activity Not available.
METAR KPGA 281253Z AUTO 00000KT 10SM CLR 17/08 A3021 RMK AO2 SLP172 T01720078

More Conditions Fewer Conditions

Pressure 30.04 in
Visibility 10.0 miles
Clouds Clear
Dew Point 50 °F
Humidity 65%
Rainfall 0.00 in
Snow Depth Not available.
UV 0 out of 12
Pollen 6.80 out of 12
Air Quality Not available.
Flu Activity Not available.
METAR KPGA 281253Z AUTO 00000KT 10SM CLR 17/08 A3021 RMK AO2 SLP172 T01720078

More Conditions Fewer Conditions

10-Day Weather Forecast

Almanac

Astronomy

Aug. 28, 2014 Rise Set
Actual Time 5:53 AM MST 6:59 PM MST
Civil Twilight 5:26 AM MST 7:26 PM MST
Nautical Twilight 4:55 AM MST 7:58 PM MST
Astronomical Twilight 4:21 AM MST 8:31 PM MST
Moon 8:44 AM MST 8:31 PM MST
Length of Visible Light 13h 59m
Length of Day
13h 06m
Tomorrow will be 2m 14s shorter.
Waxing Crescent, 8% of the Moon is Illuminated
Today
Waxing Crescent
Sep 2
First Quarter
Sep 8
Full
Sep 15
Last Quarter
Sep 24
New

Today's Extremes

State Highs State Lows

Community

WunderPhotos

Upload Photos

1,747,954 photos uploaded!

Nearby

Snow Depth

Station Depth Elevation
Snowslide Canyon 1 in 9730 ft
White Horse Lake 0 in 7180 ft
Mormon Mountain 0 in 7500 ft
Happy Jack 0 in 7630 ft
Promontory 0 in 7930 ft

Earthquake Activity

City Distance Mag. Time & Date
No recent earthquake activity has been reported nearby.
Minimum magnitude displayed is 2.5.

Coastal Water Temperatures

Place Temperature
No Stations Reporting

Nearby Weather Stations